Time;durP1;ratioP1;P1;durP2;ratioP2;P2;SDS_P1;SDS_P2;PMS_P1;PMS_P2;Temp;Humidity;BMP_temperature;BMP_pressure;BME280_temperature;BME280_humidity;BME280_pressure;Samples;Min_cycle;Max_cycle;Signal;HPM_P1;HPM_P2
2021/12/20 00:00:36;;;;;;;10.52;6.70;;;;;;;2.76;59.79;94197.31;5131020;27;20050;-69
2021/12/20 00:03:02;;;;;;;11.80;7.20;;;;;;;2.76;59.53;94206.72;5132170;27;20027;-69
2021/12/20 00:05:27;;;;;;;13.68;7.80;;;;;;;2.71;59.72;94204.47;5130933;27;20178;-69
2021/12/20 00:20:10;;;;;;;9.13;6.90;;;;;;;3.21;58.04;94205.59;5149587;27;20747;-70
2021/12/20 00:22:35;;;;;;;12.15;7.43;;;;;;;3.03;58.72;94212.69;5149606;27;20454;-70
2021/12/20 00:25:01;;;;;;;10.85;6.90;;;;;;;2.79;59.12;94204.00;5149727;27;20034;-70
2021/12/20 00:27:26;;;;;;;10.68;6.47;;;;;;;2.77;59.90;94218.66;5149485;27;20092;-70
2021/12/20 00:29:52;;;;;;;9.95;6.38;;;;;;;2.63;60.15;94228.00;5148264;27;20045;-70
2021/12/20 00:32:17;;;;;;;11.13;6.85;;;;;;;2.54;60.98;94214.94;5148229;27;20023;-70
2021/12/20 00:34:43;;;;;;;8.55;5.95;;;;;;;2.57;59.85;94207.06;5113809;27;20030;-70
2021/12/20 00:40:19;;;;;;;13.07;6.50;;;;;;;2.62;60.25;94213.53;5131046;27;20035;-70
2021/12/20 00:42:40;;;;;;;10.48;7.22;;;;;;;2.61;61.14;94221.31;5134027;27;20062;-70
2021/12/20 00:45:06;;;;;;;9.70;6.22;;;;;;;2.53;60.69;94239.72;5130857;27;20031;-70
2021/12/20 00:47:31;;;;;;;9.07;5.60;;;;;;;2.52;60.73;94232.97;5147817;27;20034;-70
2021/12/20 00:49:56;;;;;;;9.73;5.85;;;;;;;2.41;60.49;94240.47;5149280;27;20030;-70
2021/12/20 00:52:22;;;;;;;7.43;5.13;;;;;;;2.54;60.62;94238.81;5130719;27;20509;-70
2021/12/20 00:54:47;;;;;;;8.13;5.38;;;;;;;2.52;59.75;94232.97;5147861;27;20023;-70
2021/12/20 00:57:13;;;;;;;8.35;6.20;;;;;;;2.45;60.23;94237.66;5147785;27;20476;-70
2021/12/20 00:59:38;;;;;;;9.63;5.25;;;;;;;2.53;60.10;94234.59;5147684;27;20084;-70
2021/12/20 01:02:04;;;;;;;7.28;4.70;;;;;;;2.68;59.97;94238.00;5147807;27;20075;-70
2021/12/20 01:04:29;;;;;;;9.13;6.63;;;;;;;2.56;60.66;94218.19;5149345;27;20027;-70
2021/12/20 01:06:54;;;;;;;10.25;7.10;;;;;;;2.24;60.95;94216.66;5130568;27;20041;-70
2021/12/20 01:09:20;;;;;;;7.50;5.38;;;;;;;2.46;60.53;94225.66;5149222;27;20454;-70
2021/12/20 01:11:51;;;;;;;8.77;6.75;;;;;;;2.41;61.24;94219.97;5130399;27;20476;-70
2021/12/20 01:14:22;;;;;;;8.77;5.75;;;;;;;2.44;60.33;94206.97;5147805;27;20034;-70
2021/12/20 01:16:48;;;;;;;9.38;5.80;;;;;;;2.47;60.83;94199.06;5147576;27;20134;-70
2021/12/20 01:19:13;;;;;;;7.22;5.47;;;;;;;2.56;60.38;94208.75;5126701;27;20443;-70
2021/12/20 01:21:38;;;;;;;9.07;6.05;;;;;;;2.52;60.14;94204.75;5116496;27;20454;-70
2021/12/20 01:24:04;;;;;;;6.78;4.47;;;;;;;2.52;59.28;94202.19;5133579;27;20485;-70
2021/12/20 01:26:30;;;;;;;6.18;4.38;;;;;;;2.55;58.47;94209.69;5116357;27;20082;-70
2021/12/20 01:28:55;;;;;;;8.38;4.82;;;;;;;2.50;59.02;94195.50;5134866;27;20039;-70
2021/12/20 01:31:21;;;;;;;9.55;4.45;;;;;;;2.58;58.75;94211.25;5133393;27;20027;-70
2021/12/20 01:33:46;;;;;;;6.88;4.70;;;;;;;2.56;58.84;94203.63;5116240;27;20032;-70
2021/12/20 01:36:11;;;;;;;7.10;4.78;;;;;;;2.53;59.09;94203.81;5133456;27;20023;-70
2021/12/20 01:38:37;;;;;;;6.55;4.53;;;;;;;2.49;58.34;94192.13;5116042;27;20047;-70
2021/12/20 03:08:50;;;;;;;10.13;6.88;;;;;;;2.30;61.88;94224.91;4381207;27;1270377;-70
2021/12/20 03:11:16;;;;;;;9.27;6.47;;;;;;;2.35;61.32;94226.28;5107099;28;20031;-70
2021/12/20 03:13:44;;;;;;;11.32;6.60;;;;;;;2.37;61.20;94236.47;5107103;28;20115;-70
2021/12/20 03:16:09;;;;;;;9.05;6.50;;;;;;;2.32;61.48;94226.47;5090110;28;20481;-70
2021/12/20 03:18:35;;;;;;;10.70;6.68;;;;;;;2.35;61.13;94228.03;5089961;28;20082;-70
2021/12/20 03:21:00;;;;;;;10.82;6.63;;;;;;;2.37;60.72;94229.59;5106967;28;20032;-71
2021/12/20 03:23:26;;;;;;;8.88;5.95;;;;;;;2.38;61.69;94240.66;5089831;28;20524;-70
2021/12/20 03:25:51;;;;;;;10.80;6.88;;;;;;;2.32;61.16;94230.78;5106711;28;20473;-70
2021/12/20 03:28:17;;;;;;;9.90;6.93;;;;;;;2.23;61.50;94207.34;5108006;28;20417;-70
2021/12/20 03:30:44;;;;;;;12.13;6.60;;;;;;;2.32;61.34;94229.03;5072855;28;20489;-71
2021/12/20 03:33:09;;;;;;;9.35;6.50;;;;;;;2.36;61.69;94251.00;5123593;28;20122;-71
2021/12/20 03:35:35;;;;;;;10.52;6.65;;;;;;;2.40;61.20;94244.78;5106596;28;20035;-71
2021/12/20 03:38:00;;;;;;;9.15;6.70;;;;;;;2.37;61.81;94250.09;5089738;28;20028;-70
2021/12/20 03:40:26;;;;;;;10.43;6.78;;;;;;;2.36;61.69;94243.31;5107773;28;20031;-71
2021/12/20 03:42:51;;;;;;;9.25;6.82;;;;;;;2.34;61.72;94228.94;5089678;28;20102;-71
2021/12/20 03:45:17;;;;;;;9.43;6.32;;;;;;;2.37;61.81;94249.28;5106479;28;20031;-71
2021/12/20 03:47:43;;;;;;;8.55;6.55;;;;;;;2.20;62.16;94224.63;5106513;28;20101;-71
2021/12/20 03:50:09;;;;;;;10.10;6.57;;;;;;;2.21;62.20;94239.91;5072436;28;20122;-70
2021/12/20 03:52:36;;;;;;;10.75;7.00;;;;;;;2.34;62.12;94246.88;5106477;28;20039;-71
2021/12/20 03:55:01;;;;;;;10.38;6.63;;;;;;;2.37;62.76;94233.91;5106275;28;20055;-71
2021/12/20 03:57:27;;;;;;;10.70;7.28;;;;;;;2.41;62.06;94246.41;5105207;28;20482;-71
2021/12/20 03:59:53;;;;;;;12.60;8.20;;;;;;;2.41;61.54;94248.16;5092291;28;20039;-71
2021/12/20 04:02:20;;;;;;;12.05;9.35;;;;;;;2.36;62.48;94256.13;5094055;28;20024;-71
2021/12/20 04:04:46;;;;;;;11.80;8.45;;;;;;;2.31;62.54;94260.69;5092574;28;20059;-71
2021/12/20 04:07:12;;;;;;;14.35;8.48;;;;;;;2.38;63.07;94256.84;5094407;28;20460;-70
2021/12/20 04:09:37;;;;;;;16.38;10.02;;;;;;;2.37;63.23;94264.66;5114102;28;20110;-71
2021/12/20 04:12:03;;;;;;;14.90;10.95;;;;;;;2.29;63.88;94274.53;5078740;28;20492;-71
2021/12/20 04:14:29;;;;;;;16.48;10.60;;;;;;;2.30;63.86;94266.75;5095643;28;20059;-71
2021/12/20 04:16:54;;;;;;;13.07;9.45;;;;;;;2.24;63.75;94260.25;5078836;28;20035;-70
2021/12/20 04:19:19;;;;;;;23.13;14.60;;;;;;;2.18;66.02;94264.91;5113809;28;20031;-70
2021/12/20 04:21:45;;;;;;;23.80;16.98;;;;;;;2.13;65.42;94269.47;5095688;28;20027;-70
2021/12/20 04:24:10;;;;;;;25.92;18.33;;;;;;;2.11;66.67;94279.00;5095574;28;20036;-70
2021/12/20 04:26:36;;;;;;;16.48;10.82;;;;;;;2.20;66.01;94298.94;5113730;28;20217;-70
2021/12/20 04:29:01;;;;;;;17.75;11.43;;;;;;;2.00;66.10;94283.00;5078628;28;20424;-70
2021/12/20 04:31:28;;;;;;;17.08;11.43;;;;;;;2.06;66.23;94289.50;5078582;28;20480;-70
2021/12/20 04:33:53;;;;;;;16.65;11.32;;;;;;;1.88;67.34;94295.69;5078563;28;20091;-70
2021/12/20 04:36:19;;;;;;;18.38;10.90;;;;;;;1.60;67.65;94281.06;5113502;28;20438;-70
2021/12/20 04:38:45;;;;;;;27.48;15.00;;;;;;;1.28;70.66;94283.66;5095378;28;20049;-71
2021/12/20 04:41:10;;;;;;;24.13;13.20;;;;;;;1.42;70.09;94282.91;5095119;28;20027;-70
2021/12/20 04:43:35;;;;;;;21.02;12.02;;;;;;;1.51;69.57;94290.91;5095244;28;20140;-70
2021/12/20 04:46:02;;;;;;;18.70;11.30;;;;;;;1.30;70.29;94289.53;5113232;28;20052;-70
2021/12/20 04:48:27;;;;;;;19.33;12.13;;;;;;;1.34;70.14;94296.16;5095232;28;20020;-70
2021/12/20 04:50:53;;;;;;;27.25;16.80;;;;;;;1.42;70.84;94308.50;5078159;28;20064;-70
2021/12/20 04:53:18;;;;;;;25.15;15.05;;;;;;;1.45;71.15;94290.41;5094858;28;20023;-70
2021/12/20 04:55:44;;;;;;;21.10;12.27;;;;;;;1.40;70.38;94294.97;5094890;28;20458;-70
2021/12/20 04:58:10;;;;;;;23.00;14.38;;;;;;;1.57;70.36;94289.75;5094802;28;20032;-70
2021/12/20 05:00:35;;;;;;;18.35;13.07;;;;;;;1.57;69.25;94305.09;5094866;28;20484;-71
2021/12/20 05:03:01;;;;;;;16.63;11.82;;;;;;;1.68;69.06;94305.34;5094671;28;20493;-70
2021/12/20 05:05:28;;;;;;;17.92;10.75;;;;;;;1.59;69.03;94302.44;5061197;28;20031;-70
2021/12/20 05:30:26;;;;;;;14.60;9.30;;;;;;;2.31;66.19;94326.53;5149541;27;20377;-69
2021/12/20 05:32:51;;;;;;;13.38;8.15;;;;;;;2.17;66.00;94335.00;5149591;27;20034;-69
2021/12/20 05:35:17;;;;;;;11.27;7.50;;;;;;;2.13;66.33;94334.38;5150018;27;20030;-69
2021/12/20 05:37:42;;;;;;;11.68;7.50;;;;;;;1.92;66.45;94315.94;5148379;27;20022;-69
2021/12/20 05:40:09;;;;;;;10.88;7.90;;;;;;;1.93;66.78;94322.69;5148353;27;20079;-69
2021/12/20 05:42:34;;;;;;;11.95;7.75;;;;;;;1.78;67.35;94292.81;5149758;27;20030;-69
2021/12/20 05:45:00;;;;;;;29.67;11.70;;;;;;;1.87;67.29;94317.09;5148269;27;20027;-69
2021/12/20 05:47:25;;;;;;;11.45;6.78;;;;;;;1.88;66.91;94318.75;5148159;27;20015;-70
2021/12/20 05:49:51;;;;;;;11.07;7.40;;;;;;;1.90;66.38;94309.25;5149279;27;20035;-70
2021/12/20 05:52:17;;;;;;;10.40;6.95;;;;;;;1.73;66.30;94305.91;5149380;27;20056;-70
2021/12/20 05:54:42;;;;;;;11.43;6.90;;;;;;;1.83;66.33;94325.88;5149730;27;20031;-69
2021/12/20 05:57:07;;;;;;;10.73;7.72;;;;;;;1.73;67.02;94318.72;5130845;27;20056;-69
2021/12/20 05:59:33;;;;;;;10.85;6.40;;;;;;;1.70;66.58;94336.81;5149548;27;20027;-69
2021/12/20 06:01:59;;;;;;;10.32;6.63;;;;;;;1.74;66.45;94343.41;5130773;27;20046;-70
2021/12/20 06:04:24;;;;;;;9.77;6.65;;;;;;;1.86;66.03;94343.63;5130823;27;20027;-69
2021/12/20 06:06:50;;;;;;;9.18;6.50;;;;;;;1.84;66.62;94337.75;5148030;27;20033;-70
2021/12/20 06:09:15;;;;;;;8.88;6.57;;;;;;;1.84;65.96;94340.31;5147955;27;20037;-70
2021/12/20 06:11:40;;;;;;;10.52;7.07;;;;;;;1.81;65.26;94349.00;5130581;27;20035;-69
2021/12/20 06:14:07;;;;;;;8.52;5.75;;;;;;;1.86;65.56;94356.44;5130610;27;20039;-70
2021/12/20 06:16:32;;;;;;;8.15;5.28;;;;;;;1.77;65.63;94342.41;5147707;27;20023;-70
2021/12/20 06:18:57;;;;;;;7.30;5.30;;;;;;;1.82;65.71;94350.66;5113183;27;20041;-69
2021/12/20 06:21:23;;;;;;;6.95;5.20;;;;;;;1.90;64.94;94352.81;5130330;27;20015;-70
2021/12/20 06:23:49;;;;;;;9.88;6.63;;;;;;;1.94;65.08;94359.38;5130314;27;20035;-69
2021/12/20 06:26:14;;;;;;;10.32;7.18;;;;;;;1.92;64.90;94353.50;5130272;27;20023;-69
2021/12/20 06:28:39;;;;;;;8.15;5.97;;;;;;;1.95;64.86;94367.00;5147294;27;20058;-69
2021/12/20 06:31:05;;;;;;;8.25;5.30;;;;;;;1.96;64.59;94376.31;5100661;27;20497;-70
2021/12/20 06:33:30;;;;;;;8.55;5.93;;;;;;;2.04;64.10;94370.78;5134936;27;20526;-69
2021/12/20 06:35:56;;;;;;;7.93;5.85;;;;;;;2.09;64.39;94375.63;5133800;27;20072;-69
2021/12/20 06:38:22;;;;;;;6.45;4.88;;;;;;;2.06;64.08;94356.13;5134731;27;20031;-70
2021/12/20 06:40:51;;;;;;;8.30;5.47;;;;;;;2.13;64.30;94367.69;5133385;27;20023;-70
2021/12/20 06:43:16;;;;;;;13.02;8.00;;;;;;;1.98;64.43;94341.19;5116157;27;20035;-69
2021/12/20 06:45:42;;;;;;;12.48;7.28;;;;;;;2.16;63.84;94377.75;5133375;27;20377;-70
2021/12/20 06:48:07;;;;;;;12.27;7.68;;;;;;;2.14;64.13;94364.19;5134517;27;20031;-70
2021/12/20 06:50:33;;;;;;;9.75;6.38;;;;;;;2.22;63.49;94369.72;5133265;27;20023;-69
2021/12/20 06:52:58;;;;;;;6.40;4.85;;;;;;;2.38;61.98;94358.59;5133169;27;20403;-70
2021/12/20 06:55:24;;;;;;;7.63;5.82;;;;;;;2.40;62.41;94361.91;5098954;27;20066;-70
2021/12/20 06:57:49;;;;;;;7.70;5.88;;;;;;;2.46;62.42;94367.47;5115783;27;20047;-69
2021/12/20 07:00:15;;;;;;;8.50;5.22;;;;;;;2.38;62.15;94356.84;5133124;27;20030;-70
2021/12/20 07:02:40;;;;;;;7.25;5.40;;;;;;;2.47;62.09;94368.31;5134210;27;20114;-69
2021/12/20 07:05:06;;;;;;;7.03;4.70;;;;;;;2.55;61.19;94370.44;5133156;27;20472;-70
2021/12/20 07:07:31;;;;;;;7.40;5.03;;;;;;;2.53;62.38;94367.94;5115844;27;20114;-70
2021/12/20 07:09:57;;;;;;;7.70;5.45;;;;;;;2.44;62.34;94369.31;5115605;27;20019;-70
2021/12/20 07:12:22;;;;;;;9.13;5.85;;;;;;;2.49;62.31;94370.78;5134115;27;20023;-69
2021/12/20 07:14:50;;;;;;;6.93;4.95;;;;;;;2.59;61.65;94375.28;5134334;27;20476;-70
2021/12/20 07:17:17;;;;;;;6.72;4.80;;;;;;;2.51;62.06;94380.03;5133931;27;20027;-70
2021/12/20 07:19:42;;;;;;;8.55;4.55;;;;;;;2.45;61.81;94383.78;5115650;27;20046;-70
2021/12/20 07:22:08;;;;;;;6.20;4.65;;;;;;;2.45;61.61;94365.00;5133913;27;20408;-70
2021/12/20 07:24:33;;;;;;;7.45;5.20;;;;;;;2.42;62.03;94367.75;5115543;27;20423;-69
2021/12/20 07:26:58;;;;;;;7.57;5.70;;;;;;;2.51;61.60;94371.50;5115388;27;20411;-70
2021/12/20 07:29:24;;;;;;;19.30;12.05;;;;;;;2.46;61.46;94382.88;5115252;27;20043;-70
2021/12/20 07:31:49;;;;;;;11.30;7.28;;;;;;;2.53;60.77;94375.63;5115493;27;20475;-70
2021/12/20 07:34:15;;;;;;;7.22;5.38;;;;;;;2.52;61.27;94381.69;5132522;27;20506;-69
2021/12/20 07:36:40;;;;;;;13.23;8.63;;;;;;;2.57;61.31;94381.44;5132375;27;20029;-70
2021/12/20 07:39:06;;;;;;;15.05;8.57;;;;;;;2.49;62.07;94375.91;5114963;27;20039;-70
2021/12/20 07:41:31;;;;;;;12.38;8.40;;;;;;;2.58;61.36;94377.94;5114172;27;20038;-69
2021/12/20 07:43:57;;;;;;;13.52;8.73;;;;;;;2.62;61.77;94387.94;5114952;27;20037;-70
2021/12/20 07:46:22;;;;;;;8.25;5.85;;;;;;;2.67;61.11;94385.94;5115403;27;20034;-70
2021/12/20 07:48:49;;;;;;;29.80;15.60;;;;;;;2.69;60.65;94373.00;5132117;27;20035;-70
2021/12/20 07:51:14;;;;;;;5.78;4.63;;;;;;;2.65;60.63;94395.44;5098207;27;20035;-70
2021/12/20 07:53:41;;;;;;;6.15;4.70;;;;;;;2.76;59.49;94399.97;5114940;27;20432;-69
2021/12/20 07:56:07;;;;;;;6.35;4.18;;;;;;;2.76;59.47;94378.59;5115061;27;20560;-70
2021/12/20 07:58:32;;;;;;;9.45;6.20;;;;;;;2.80;60.29;94405.72;5131812;27;20027;-70
2021/12/20 08:00:58;;;;;;;6.65;4.75;;;;;;;2.62;60.44;94397.38;5131863;27;20032;-70
2021/12/20 08:03:24;;;;;;;6.47;4.60;;;;;;;2.77;59.67;94396.47;5114742;27;20035;-70
2021/12/20 08:05:50;;;;;;;7.25;5.40;;;;;;;2.73;59.94;94394.16;5114601;27;20539;-70
2021/12/20 08:08:15;;;;;;;6.25;3.95;;;;;;;2.72;59.48;94403.59;5132772;27;20099;-70
2021/12/20 08:10:41;;;;;;;7.93;5.10;;;;;;;2.78;59.63;94402.41;5114569;27;20023;-70
2021/12/20 08:13:08;;;;;;;8.93;5.07;;;;;;;2.91;59.17;94403.34;5114415;27;20031;-70
2021/12/20 08:15:33;;;;;;;6.40;4.13;;;;;;;2.93;59.33;94416.09;5131606;27;20050;-70
2021/12/20 08:17:59;;;;;;;6.75;4.82;;;;;;;2.99;58.26;94419.13;5131324;27;20411;-70
2021/12/20 08:20:24;;;;;;;5.82;4.22;;;;;;;2.94;58.30;94400.59;5097376;27;20023;-69
2021/12/20 08:22:50;;;;;;;9.48;6.50;;;;;;;3.05;58.71;94405.91;5131352;27;20031;-69
2021/12/20 08:25:16;;;;;;;5.25;4.03;;;;;;;3.06;59.20;94394.72;5131401;27;20027;-69
2021/12/20 08:27:42;;;;;;;7.22;4.45;;;;;;;3.06;57.61;94417.00;5131304;27;20037;-69
2021/12/20 08:30:08;;;;;;;4.05;3.10;;;;;;;3.05;57.25;94402.53;5132597;27;20457;-69
2021/12/20 08:32:33;;;;;;;7.60;3.97;;;;;;;3.03;57.26;94407.75;5114208;27;20023;-69
2021/12/20 08:34:59;;;;;;;8.35;5.15;;;;;;;3.10;57.38;94416.72;5113961;27;20035;-69
2021/12/20 08:37:25;;;;;;;6.95;4.72;;;;;;;3.12;57.14;94411.50;5113975;27;20027;-69
2021/12/20 08:39:50;;;;;;;7.22;4.93;;;;;;;3.19;57.30;94411.97;5131013;27;20035;-70
2021/12/20 08:42:16;;;;;;;7.03;4.68;;;;;;;3.25;56.82;94414.16;5114112;27;20019;-71
2021/12/20 08:44:41;;;;;;;4.88;3.30;;;;;;;3.26;56.81;94420.94;5114124;27;20087;-69
2021/12/20 08:47:07;;;;;;;5.30;3.40;;;;;;;3.28;55.59;94411.41;5130971;27;20023;-69
2021/12/20 08:49:32;;;;;;;8.40;4.50;;;;;;;3.35;56.15;94422.97;5113886;27;20031;-70
2021/12/20 08:51:58;;;;;;;5.80;3.85;;;;;;;3.34;56.05;94426.44;5130843;27;20034;-69
2021/12/20 08:54:27;;;;;;;5.88;3.90;;;;;;;3.43;55.72;94425.88;5096625;27;20126;-69
2021/12/20 08:56:52;;;;;;;8.57;3.80;;;;;;;3.32;56.49;94415.44;5130849;27;20029;-69
2021/12/20 08:59:18;;;;;;;10.32;5.75;;;;;;;3.43;55.97;94437.91;5130873;27;20042;-69
2021/12/20 09:01:43;;;;;;;8.60;4.47;;;;;;;3.42;55.60;94413.94;5130827;27;20023;-69
2021/12/20 09:04:09;;;;;;;8.90;7.05;;;;;;;3.45;55.33;94410.38;5132335;27;20031;-69
2021/12/20 09:06:38;;;;;;;5.85;4.10;;;;;;;3.35;55.53;94410.94;5130665;27;20027;-69
2021/12/20 09:09:04;;;;;;;4.63;3.58;;;;;;;3.35;55.14;94398.09;5097507;27;20039;-69
2021/12/20 09:11:30;;;;;;;6.97;3.20;;;;;;;3.48;55.47;94411.03;5130728;27;20030;-69
2021/12/20 09:13:55;;;;;;;3.83;2.92;;;;;;;3.52;54.52;94409.91;5130702;27;20484;-69
2021/12/20 09:16:21;;;;;;;4.00;2.97;;;;;;;3.60;54.53;94381.19;5113508;28;20492;-69
2021/12/20 09:18:46;;;;;;;5.75;3.13;;;;;;;3.60;54.37;94412.00;5113474;28;20081;-69
2021/12/20 09:21:12;;;;;;;4.05;2.95;;;;;;;3.59;54.65;94423.19;5096495;28;20078;-70
2021/12/20 09:23:38;;;;;;;17.52;9.60;;;;;;;3.57;54.61;94402.75;5131963;27;20031;-69
2021/12/20 09:26:04;;;;;;;6.80;4.00;;;;;;;3.62;54.99;94411.91;5096539;28;20065;-69
2021/12/20 09:28:29;;;;;;;4.05;2.78;;;;;;;3.70;54.53;94387.38;5096147;28;20143;-69
2021/12/20 09:30:55;;;;;;;8.50;5.63;;;;;;;3.85;54.65;94390.75;5113419;28;20038;-69
2021/12/20 09:33:20;;;;;;;10.50;7.38;;;;;;;3.84;55.07;94388.25;5130531;28;20035;-69
2021/12/20 09:35:46;;;;;;;9.13;7.40;;;;;;;3.83;56.15;94391.75;5130432;28;20019;-69
2021/12/20 09:38:16;;;;;;;6.32;5.05;;;;;;;3.87;55.42;94393.22;5113297;28;20411;-69
2021/12/20 09:40:51;;;;;;;5.97;4.10;;;;;;;3.92;54.95;94389.41;5097464;28;20054;-69
2021/12/20 09:43:16;;;;;;;14.40;6.68;;;;;;;3.98;56.01;94391.63;5131519;27;20039;-69
2021/12/20 09:45:43;;;;;;;10.40;6.50;;;;;;;4.03;55.95;94392.13;5113249;28;20084;-69
2021/12/20 09:48:09;;;;;;;33.22;15.52;;;;;;;3.96;55.69;94387.50;5130343;28;20064;-69
2021/12/20 09:50:34;;;;;;;5.75;3.80;;;;;;;3.77;55.17;94395.53;5113289;28;20023;-69
2021/12/20 09:53:04;;;;;;;6.80;4.35;;;;;;;3.84;55.02;94394.22;5130253;28;20039;-69
2021/12/20 09:55:30;;;;;;;8.57;5.10;;;;;;;3.77;55.55;94387.84;5131476;27;20484;-69
2021/12/20 09:57:55;;;;;;;7.25;4.40;;;;;;;3.51;55.28;94369.75;5130064;28;20032;-69
2021/12/20 10:00:21;;;;;;;8.02;5.68;;;;;;;3.56;55.31;94393.38;5113130;28;20033;-69
2021/12/20 10:02:47;;;;;;;13.27;7.90;;;;;;;3.66;55.21;94379.97;5130212;28;20076;-69
2021/12/20 10:05:13;;;;;;;10.45;5.82;;;;;;;3.74;55.29;94385.47;5131478;27;20034;-69
2021/12/20 10:07:39;;;;;;;6.35;4.45;;;;;;;3.70;56.07;94368.56;5117035;27;20106;-69
2021/12/20 10:10:06;;;;;;;4.53;3.75;;;;;;;3.79;55.81;94376.53;5133946;27;20476;-69
2021/12/20 10:12:32;;;;;;;7.05;5.90;;;;;;;3.76;55.51;94370.75;5134199;27;20027;-70
2021/12/20 10:15:08;;;;;;;7.20;4.88;;;;;;;3.77;56.15;94377.56;5133938;27;20024;-69
2021/12/20 10:17:58;;;;;;;8.00;5.97;;;;;;;3.67;56.69;94367.03;5099802;27;20412;-70
2021/12/20 10:20:26;;;;;;;7.45;5.82;;;;;;;3.84;56.16;94381.38;5134190;27;20123;-70
2021/12/20 10:22:52;;;;;;;6.55;4.82;;;;;;;3.80;57.04;94383.31;5133729;27;20032;-69
2021/12/20 10:25:22;;;;;;;5.57;4.20;;;;;;;3.89;56.82;94387.06;5133780;27;20114;-70
2021/12/20 10:27:47;;;;;;;10.30;4.35;;;;;;;3.75;56.51;94387.09;5133625;27;20110;-69
2021/12/20 10:30:23;;;;;;;5.70;4.00;;;;;;;3.70;57.02;94387.38;5133758;27;20062;-69
2021/12/20 10:32:48;;;;;;;7.20;4.38;;;;;;;3.74;56.92;94403.44;5134793;27;20031;-69
2021/12/20 10:35:27;;;;;;;4.70;3.70;;;;;;;3.74;56.23;94385.47;5116476;27;20038;-70
2021/12/20 10:37:53;;;;;;;6.90;4.20;;;;;;;3.77;56.72;94380.94;5134660;27;20031;-69
2021/12/20 10:40:18;;;;;;;5.60;4.30;;;;;;;3.70;56.93;94389.13;5116329;27;20076;-69
2021/12/20 10:42:44;;;;;;;12.38;4.07;;;;;;;3.64;56.75;94389.50;5133288;27;20050;-69
2021/12/20 10:45:13;;;;;;;5.95;4.85;;;;;;;3.64;57.44;94376.66;5116094;27;20019;-69
2021/12/20 10:47:38;;;;;;;5.60;4.22;;;;;;;3.69;57.77;94379.78;5133688;27;20027;-70
2021/12/20 10:50:27;;;;;;;6.13;4.70;;;;;;;3.73;58.33;94381.22;5116079;27;20072;-70
2021/12/20 10:52:53;;;;;;;12.50;7.15;;;;;;;3.73;58.33;94388.94;5133125;27;20059;-69
2021/12/20 10:55:42;;;;;;;10.25;5.97;;;;;;;3.85;58.70;94380.47;5116016;27;20407;-70
2021/12/20 10:58:20;;;;;;;9.68;5.75;;;;;;;3.83;59.03;94384.88;5116570;27;20035;-69
2021/12/20 11:01:22;;;;;;;6.80;4.90;;;;;;;3.77;59.37;94388.66;5116516;27;20104;-70
2021/12/20 11:04:17;;;;;;;9.63;5.30;;;;;;;3.75;59.32;94390.50;5119069;27;20539;-69
2021/12/20 11:09:17;;;;;;;9.05;6.22;;;;;;;3.80;59.03;94388.47;5116083;27;20515;-69
2021/12/20 11:11:54;;;;;;;11.95;7.30;;;;;;;3.77;58.40;94392.97;5132870;27;20034;-70
2021/12/20 11:14:22;;;;;;;8.85;4.88;;;;;;;3.86;57.48;94407.81;5133133;27;20035;-69
2021/12/20 11:16:52;;;;;;;6.35;3.60;;;;;;;3.77;57.02;94396.38;5132627;27;20496;-69
2021/12/20 11:19:24;;;;;;;4.72;3.22;;;;;;;3.89;57.20;94407.59;5132823;27;20092;-69
2021/12/20 11:21:50;;;;;;;4.97;3.10;;;;;;;3.97;56.68;94384.00;5132534;27;20030;-70
2021/12/20 11:24:18;;;;;;;5.57;2.95;;;;;;;3.97;56.50;94389.97;5133742;27;20027;-69
2021/12/20 11:26:44;;;;;;;6.28;4.25;;;;;;;3.94;57.08;94382.44;5115554;27;20035;-69
2021/12/20 11:29:10;;;;;;;5.50;3.90;;;;;;;3.84;57.55;94378.81;5133657;27;20054;-69
2021/12/20 11:31:37;;;;;;;12.20;6.45;;;;;;;3.91;57.46;94369.78;5132493;27;20051;-69
2021/12/20 11:34:02;;;;;;;7.93;4.30;;;;;;;3.87;57.88;94380.34;5133876;27;20041;-69
2021/12/20 11:36:28;;;;;;;7.30;4.50;;;;;;;3.83;56.48;94397.72;5132395;27;20019;-69
2021/12/20 11:38:53;;;;;;;6.32;4.72;;;;;;;3.91;57.11;94394.69;5114837;27;20046;-69
2021/12/20 11:41:19;;;;;;;6.43;4.60;;;;;;;3.63;57.71;94363.00;5115239;27;20031;-69
2021/12/20 11:43:47;;;;;;;8.25;4.32;;;;;;;3.94;57.77;94385.03;5133722;27;20038;-69
2021/12/20 11:46:12;;;;;;;6.30;3.00;;;;;;;4.00;57.23;94383.81;5132603;27;20023;-69
2021/12/20 11:48:38;;;;;;;4.28;2.83;;;;;;;4.05;56.58;94404.91;5115039;27;20046;-69
2021/12/20 11:51:04;;;;;;;6.10;2.65;;;;;;;3.94;56.50;94415.84;5114855;27;20072;-69
2021/12/20 11:53:36;;;;;;;4.00;2.60;;;;;;;3.79;57.41;94412.53;5132022;27;20031;-70
2021/12/20 11:56:02;;;;;;;5.65;3.90;;;;;;;3.76;57.72;94404.16;5114878;27;20060;-69
2021/12/20 11:58:30;;;;;;;7.07;4.68;;;;;;;3.81;57.51;94407.25;5131827;27;20453;-69
2021/12/20 12:01:05;;;;;;;5.70;3.88;;;;;;;3.82;57.89;94434.63;5098007;27;20079;-69
2021/12/20 12:03:32;;;;;;;7.00;5.15;;;;;;;3.66;57.64;94419.34;5131867;27;20027;-69
2021/12/20 12:05:58;;;;;;;4.18;3.33;;;;;;;3.44;57.27;94422.38;5114728;27;20416;-69
2021/12/20 12:08:36;;;;;;;4.18;2.78;;;;;;;3.50;56.97;94434.03;5114515;27;20046;-69
2021/12/20 12:11:04;;;;;;;6.20;3.28;;;;;;;3.40;57.65;94445.78;5132888;27;20035;-70
2021/12/20 12:13:35;;;;;;;8.60;4.68;;;;;;;3.14;58.29;94423.31;5132976;27;20064;-69
2021/12/20 12:16:04;;;;;;;6.45;4.43;;;;;;;3.12;58.24;94401.22;5098855;27;20443;-69
2021/12/20 12:18:49;;;;;;;5.07;4.47;;;;;;;3.29;59.22;94418.22;5131513;27;20035;-70
2021/12/20 12:21:34;;;;;;;6.18;3.90;;;;;;;3.42;58.36;94431.94;5114512;27;20139;-69
2021/12/20 12:24:00;;;;;;;4.32;3.33;;;;;;;3.49;57.79;94429.81;5132861;27;20049;-69
2021/12/20 12:26:39;;;;;;;5.78;3.95;;;;;;;3.40;57.70;94410.66;5114232;27;20027;-69
2021/12/20 12:29:05;;;;;;;8.25;4.07;;;;;;;3.34;58.95;94422.13;5130542;27;20520;-69
2021/12/20 12:32:01;;;;;;;11.48;4.63;;;;;;;3.30;58.66;94419.84;5131295;27;20024;-69
2021/12/20 12:34:43;;;;;;;7.25;4.65;;;;;;;3.34;59.08;94429.84;5118553;27;20039;-69
2021/12/20 12:37:19;;;;;;;6.80;3.80;;;;;;;3.27;58.94;94423.41;5114289;27;20031;-68
2021/12/20 12:39:45;;;;;;;6.55;4.13;;;;;;;3.33;58.58;94445.34;5131181;27;20031;-69
2021/12/20 12:42:11;;;;;;;8.10;5.20;;;;;;;3.36;58.74;94430.56;5097035;27;20034;-69
2021/12/20 12:44:37;;;;;;;7.47;4.18;;;;;;;3.26;59.89;94428.63;5114104;27;20037;-69
2021/12/20 12:47:12;;;;;;;10.13;6.15;;;;;;;3.30;60.27;94420.66;5113958;27;20039;-69
2021/12/20 12:49:48;;;;;;;14.63;8.27;;;;;;;3.38;58.85;94417.63;5114615;27;20484;-69
2021/12/20 12:52:17;;;;;;;12.35;7.30;;;;;;;3.44;59.37;94419.00;5113743;27;20465;-69
2021/12/20 12:54:54;;;;;;;11.82;7.00;;;;;;;3.56;59.64;94416.50;5132513;27;20117;-69
2021/12/20 12:57:20;;;;;;;11.10;6.55;;;;;;;3.56;61.38;94415.66;5132162;27;20031;-69
2021/12/20 12:59:48;;;;;;;9.02;6.95;;;;;;;3.55;59.79;94419.16;5132404;27;20454;-69
2021/12/20 13:02:19;;;;;;;7.90;5.13;;;;;;;3.52;58.52;94422.75;5132073;27;20019;-69
2021/12/20 13:05:05;;;;;;;7.15;5.20;;;;;;;3.43;59.39;94415.63;5114616;27;20046;-69
2021/12/20 13:07:31;;;;;;;8.02;5.68;;;;;;;3.51;59.28;94421.13;5131891;27;20030;-69
2021/12/20 13:09:59;;;;;;;10.90;6.40;;;;;;;3.48;59.33;94423.88;5130645;27;20027;-69
2021/12/20 13:12:34;;;;;;;14.95;6.55;;;;;;;3.58;58.85;94432.63;5130735;27;20059;-69
2021/12/20 13:15:22;;;;;;;8.48;5.00;;;;;;;3.53;58.04;94437.22;5114935;28;20084;-69
2021/12/20 13:17:50;;;;;;;6.65;5.00;;;;;;;3.43;57.01;94446.44;5115474;28;20057;-69
2021/12/20 13:20:24;;;;;;;5.80;3.60;;;;;;;3.59;56.99;94461.72;5113727;28;20054;-68
2021/12/20 13:22:56;;;;;;;5.35;4.47;;;;;;;3.50;56.31;94457.16;5131677;27;20125;-69
2021/12/20 13:25:35;;;;;;;9.77;6.60;;;;;;;3.52;56.40;94455.31;5131828;27;20480;-70
2021/12/20 13:28:00;;;;;;;8.20;5.05;;;;;;;3.40;56.24;94462.03;5131605;27;20162;-70
2021/12/20 13:30:49;;;;;;;6.00;4.18;;;;;;;3.20;57.49;94470.06;5130522;28;20028;-69
2021/12/20 13:33:16;;;;;;;9.43;4.43;;;;;;;2.91;57.53;94470.88;5113937;28;20031;-69
2021/12/20 13:35:42;;;;;;;7.97;5.55;;;;;;;2.93;55.80;94493.91;5113423;28;20034;-69
2021/12/20 13:38:21;;;;;;;16.00;9.77;;;;;;;2.91;56.98;94493.97;5113314;28;20063;-69
2021/12/20 13:41:16;;;;;;;14.50;8.00;;;;;;;2.95;56.11;94510.00;5132743;27;20023;-69
2021/12/20 13:43:43;;;;;;;10.38;7.40;;;;;;;2.75;54.44;94505.22;5120152;27;20162;-69
2021/12/20 13:46:30;;;;;;;10.30;5.35;;;;;;;2.66;54.74;94529.66;5117544;27;20034;-70
2021/12/20 13:49:02;;;;;;;7.00;5.43;;;;;;;2.47;54.99;94512.72;5134451;27;20072;-69